createdAt,value
2023-01-19T00:01:58.202Z,-0.21
2023-01-19T00:04:26.486Z,-0.27
2023-01-19T00:06:54.344Z,-0.22
2023-01-19T00:09:22.972Z,-0.16
2023-01-19T00:11:51.215Z,-0.25
2023-01-19T00:14:19.057Z,-0.20
2023-01-19T00:16:46.917Z,-0.21
2023-01-19T00:19:15.172Z,-0.20
2023-01-19T00:21:43.033Z,-0.31
2023-01-19T00:24:14.449Z,-0.19
2023-01-19T00:26:43.101Z,-0.24
2023-01-19T00:29:12.186Z,-0.29
2023-01-19T00:31:40.113Z,-0.24
2023-01-19T00:34:08.758Z,-0.24
2023-01-19T00:36:36.683Z,-0.22
2023-01-19T00:39:07.356Z,-0.26
2023-01-19T00:42:04.638Z,-0.29
2023-01-19T00:44:32.432Z,-0.23
2023-01-19T00:47:01.350Z,-0.22
2023-01-19T00:49:29.317Z,-0.24
2023-01-19T00:51:57.578Z,-0.25
2023-01-19T00:54:27.541Z,-0.21
2023-01-19T00:56:55.470Z,-0.23
2023-01-19T00:59:26.329Z,-0.32
2023-01-19T01:01:54.803Z,-0.29
2023-01-19T01:04:22.887Z,-0.28
2023-01-19T01:06:50.752Z,-0.31
2023-01-19T01:09:19.032Z,-0.29
2023-01-19T01:11:46.908Z,-0.29
2023-01-19T01:14:14.782Z,-0.32
2023-01-19T01:16:43.118Z,-0.33
2023-01-19T01:19:11.093Z,-0.37
2023-01-19T01:21:39.087Z,-0.33
2023-01-19T01:24:08.189Z,-0.35
2023-01-19T01:26:36.175Z,-0.39
2023-01-19T01:29:05.911Z,-0.46
2023-01-19T01:31:34.337Z,-0.41
2023-01-19T01:34:02.283Z,-0.39
2023-01-19T01:36:32.589Z,-0.38
2023-01-19T01:39:01.105Z,-0.42
2023-01-19T01:41:32.725Z,-0.48
2023-01-19T01:44:03.252Z,-0.51
2023-01-19T01:46:32.166Z,-0.47
2023-01-19T01:49:08.235Z,-0.54
2023-01-19T01:51:47.250Z,-0.55
2023-01-19T01:54:32.772Z,-0.56
2023-01-19T01:57:07.053Z,-0.54
2023-01-19T01:59:39.561Z,-0.59
2023-01-19T02:02:30.453Z,-0.56
2023-01-19T02:05:07.025Z,-0.69
2023-01-19T02:08:05.239Z,-0.68
2023-01-19T02:10:52.989Z,-0.62
2023-01-19T02:13:21.831Z,-0.63
2023-01-19T02:16:00.119Z,-0.74
2023-01-19T02:18:30.287Z,-0.67
2023-01-19T02:21:01.572Z,-0.73
2023-01-19T02:23:47.726Z,-0.76
2023-01-19T02:26:20.794Z,-0.67
2023-01-19T02:29:01.353Z,-0.79
2023-01-19T02:31:31.860Z,-0.71
2023-01-19T02:34:04.297Z,-0.73
2023-01-19T02:36:43.671Z,-0.71
2023-01-19T02:39:13.178Z,-0.74
2023-01-19T02:41:49.331Z,-0.74
2023-01-19T02:44:18.922Z,-0.83
2023-01-19T02:46:47.146Z,-0.84
2023-01-19T02:49:15.081Z,-0.77
2023-01-19T02:51:44.812Z,-0.80
2023-01-19T02:54:28.879Z,-0.81
2023-01-19T02:57:18.485Z,-0.86
2023-01-19T03:00:10.992Z,-0.83
2023-01-19T03:03:06.701Z,-0.83
2023-01-19T03:06:16.680Z,-0.86
2023-01-19T03:09:11.809Z,-0.94
2023-01-19T03:11:45.163Z,-0.76
2023-01-19T03:14:14.971Z,-0.81
2023-01-19T03:16:48.926Z,-0.73
2023-01-19T03:19:16.776Z,-0.67
2023-01-19T03:21:48.328Z,-0.69
2023-01-19T03:24:18.553Z,-0.75
2023-01-19T03:26:52.481Z,-0.64
2023-01-19T03:29:27.705Z,-0.65
2023-01-19T03:32:00.219Z,-0.67
2023-01-19T03:34:29.911Z,-0.62
2023-01-19T03:37:03.432Z,-0.58
2023-01-19T03:39:31.966Z,-0.54
2023-01-19T03:42:11.733Z,-0.61
2023-01-19T03:44:42.044Z,-0.59
2023-01-19T03:47:12.511Z,-0.61
2023-01-19T03:49:45.635Z,-0.62
2023-01-19T03:52:14.471Z,-0.56
2023-01-19T03:54:42.731Z,-0.65
2023-01-19T03:57:10.614Z,-0.73
2023-01-19T03:59:38.837Z,-0.64
2023-01-19T04:02:06.738Z,-0.75
2023-01-19T04:04:35.000Z,-0.59
2023-01-19T04:07:02.902Z,-0.62
2023-01-19T04:09:30.743Z,-0.57
2023-01-19T04:11:59.026Z,-0.57
2023-01-19T04:14:26.819Z,-0.57
2023-01-19T04:16:54.553Z,-0.66
2023-01-19T04:19:22.920Z,-0.62
2023-01-19T04:21:51.475Z,-0.70
2023-01-19T04:24:19.412Z,-0.72
2023-01-19T04:26:47.725Z,-0.59
2023-01-19T04:29:15.656Z,-0.56
2023-01-19T04:31:43.819Z,-0.64
2023-01-19T04:34:14.851Z,-0.77
2023-01-19T04:36:47.062Z,-0.65
2023-01-19T04:39:18.722Z,-0.68
2023-01-19T04:41:46.516Z,-0.59
2023-01-19T04:44:14.911Z,-0.64
2023-01-19T04:46:43.032Z,-0.62
2023-01-19T04:49:11.193Z,-0.69
2023-01-19T04:51:39.085Z,-0.66
2023-01-19T04:54:10.703Z,-0.69
2023-01-19T04:56:38.871Z,-0.58
2023-01-19T04:59:07.326Z,-0.61
2023-01-19T05:01:35.745Z,-0.67
2023-01-19T05:04:06.671Z,-0.56
2023-01-19T05:06:35.562Z,-0.58
2023-01-19T05:09:04.875Z,-0.64
2023-01-19T05:11:32.698Z,-0.57
2023-01-19T05:14:00.972Z,-0.71
2023-01-19T05:16:28.809Z,-0.57
2023-01-19T05:18:57.087Z,-0.56
2023-01-19T05:21:25.345Z,-0.62
2023-01-19T05:23:53.376Z,-0.63
2023-01-19T05:26:24.276Z,-0.58
2023-01-19T05:28:52.535Z,-0.59
2023-01-19T05:31:20.423Z,-0.56
2023-01-19T05:33:49.321Z,-0.58
2023-01-19T05:36:17.714Z,-0.53
2023-01-19T05:38:45.627Z,-0.53
2023-01-19T05:41:18.016Z,-0.54
2023-01-19T05:43:49.101Z,-0.51
2023-01-19T05:46:16.986Z,-0.51
2023-01-19T05:48:45.475Z,-0.51
2023-01-19T05:51:13.777Z,-0.55
2023-01-19T05:53:42.041Z,-0.46
2023-01-19T05:56:13.318Z,-0.58
2023-01-19T05:58:41.741Z,-0.50
2023-01-19T06:01:16.709Z,-0.49
2023-01-19T06:03:45.065Z,-0.47
2023-01-19T06:06:15.249Z,-0.47
2023-01-19T06:08:43.018Z,-0.42
2023-01-19T06:11:12.109Z,-0.49
2023-01-19T06:13:41.955Z,-0.44
2023-01-19T06:16:11.927Z,-0.46
2023-01-19T06:18:40.743Z,-0.47
2023-01-19T06:21:10.235Z,-0.45
2023-01-19T06:23:38.009Z,-0.43
2023-01-19T06:26:06.490Z,-0.43
2023-01-19T06:28:34.554Z,-0.44
2023-01-19T06:31:02.608Z,-0.40
2023-01-19T06:33:34.436Z,-0.39
2023-01-19T06:36:02.411Z,-0.42
2023-01-19T06:38:32.300Z,-0.44
2023-01-19T06:41:04.348Z,-0.44
2023-01-19T06:43:33.087Z,-0.39
2023-01-19T06:46:02.139Z,-0.37
2023-01-19T06:48:31.110Z,-0.37
2023-01-19T06:51:00.223Z,-0.36
2023-01-19T06:53:29.409Z,-0.37
2023-01-19T06:56:02.102Z,-0.39
2023-01-19T06:58:31.984Z,-0.36
2023-01-19T07:01:07.306Z,-0.29
2023-01-19T07:03:39.599Z,-0.32
2023-01-19T07:06:09.478Z,-0.28
2023-01-19T07:08:38.962Z,-0.28
2023-01-19T07:11:26.362Z,-0.32
2023-01-19T07:14:00.286Z,-0.34
2023-01-19T07:16:29.788Z,-0.27
2023-01-19T07:18:58.665Z,-0.28
2023-01-19T07:21:32.077Z,-0.25
2023-01-19T07:24:02.040Z,-0.27
2023-01-19T07:26:32.051Z,-0.22
2023-01-19T07:29:04.218Z,-0.24
2023-01-19T07:31:35.950Z,-0.23
2023-01-19T07:34:03.943Z,-0.21
2023-01-19T07:36:34.168Z,-0.22
2023-01-19T07:39:03.527Z,-0.23
2023-01-19T07:41:35.626Z,-0.15
2023-01-19T07:44:08.098Z,-0.13
2023-01-19T07:46:38.444Z,-0.12
2023-01-19T07:49:10.894Z,-0.23
2023-01-19T07:51:39.207Z,-0.14
2023-01-19T07:54:08.970Z,-0.29
2023-01-19T07:56:37.156Z,-0.17
2023-01-19T07:59:05.366Z,-0.13
2023-01-19T08:01:35.317Z,-0.13
2023-01-19T08:04:04.956Z,-0.11
2023-01-19T08:06:37.365Z,-0.11
2023-01-19T08:09:07.332Z,-0.12
2023-01-19T08:11:37.176Z,-0.04
2023-01-19T08:14:09.655Z,-0.10
2023-01-19T08:16:38.809Z,-0.10
2023-01-19T08:19:08.728Z,-0.06
2023-01-19T08:21:40.171Z,-0.06
2023-01-19T08:24:22.526Z,-0.03
2023-01-19T08:26:51.454Z,-0.07
2023-01-19T08:29:24.856Z,-0.08
2023-01-19T08:31:59.113Z,-0.05
2023-01-19T08:34:35.908Z,-0.04
2023-01-19T08:37:05.360Z,-0.03
2023-01-19T08:39:34.234Z,-0.02
2023-01-19T08:42:04.567Z,-0.04
2023-01-19T08:44:33.004Z,0.02
2023-01-19T08:47:02.602Z,0.01
2023-01-19T08:49:32.754Z,0.01
2023-01-19T08:52:03.419Z,0.00
2023-01-19T08:54:32.120Z,0.03
2023-01-19T08:57:05.343Z,0.06
2023-01-19T08:59:38.083Z,0.04
2023-01-19T09:02:10.882Z,-0.02
2023-01-19T09:04:44.703Z,0.10
2023-01-19T09:07:16.116Z,-0.01
2023-01-19T09:09:46.407Z,0.06
2023-01-19T09:12:15.188Z,0.08
2023-01-19T09:14:45.789Z,0.13
2023-01-19T09:17:22.663Z,0.14
2023-01-19T09:19:51.081Z,0.11
2023-01-19T09:22:23.342Z,0.02
2023-01-19T09:24:56.359Z,0.13
2023-01-19T09:27:27.395Z,0.06
2023-01-19T09:29:58.127Z,0.10
2023-01-19T09:32:30.895Z,0.12
2023-01-19T09:35:00.548Z,0.11
2023-01-19T09:37:32.504Z,0.14
2023-01-19T09:40:03.289Z,0.17
2023-01-19T09:42:51.528Z,0.16
2023-01-19T09:45:41.164Z,0.14
2023-01-19T09:48:49.194Z,0.13
2023-01-19T09:51:34.293Z,0.19
2023-01-19T09:54:18.640Z,0.19
2023-01-19T09:56:52.359Z,0.22
2023-01-19T09:59:34.184Z,0.23
2023-01-19T10:02:23.022Z,0.25
2023-01-19T10:05:34.589Z,0.26
2023-01-19T10:08:33.446Z,0.26
2023-01-19T10:11:27.485Z,0.28
2023-01-19T10:14:00.389Z,0.23
2023-01-19T10:16:53.109Z,0.25
2023-01-19T10:19:35.091Z,0.17
2023-01-19T10:22:25.947Z,0.22
2023-01-19T10:25:02.171Z,0.16
2023-01-19T10:27:35.847Z,0.20
2023-01-19T10:30:08.874Z,0.15
2023-01-19T10:32:42.133Z,0.16
2023-01-19T10:35:24.478Z,0.13
2023-01-19T10:38:05.374Z,0.17
2023-01-19T10:40:40.933Z,0.20
2023-01-19T10:43:36.509Z,0.18
2023-01-19T10:46:23.717Z,0.16
2023-01-19T10:48:56.393Z,0.12
2023-01-19T10:51:27.941Z,0.12
2023-01-19T10:54:00.540Z,0.12
2023-01-19T10:56:36.782Z,0.15
2023-01-19T10:59:07.617Z,0.15
2023-01-19T11:01:38.228Z,0.10
2023-01-19T11:04:30.955Z,0.09
2023-01-19T11:07:20.580Z,0.11
2023-01-19T11:09:51.627Z,0.09
2023-01-19T11:12:26.765Z,0.08
2023-01-19T11:15:28.183Z,0.15
2023-01-19T11:18:00.143Z,0.12
2023-01-19T11:20:37.271Z,0.10
2023-01-19T11:23:09.165Z,0.15
2023-01-19T11:25:46.250Z,0.10
2023-01-19T11:28:30.423Z,0.08
2023-01-19T11:31:06.650Z,0.15
2023-01-19T11:33:45.710Z,0.11
2023-01-19T11:36:21.317Z,0.10
2023-01-19T11:38:57.746Z,0.12
2023-01-19T11:41:37.884Z,0.07
2023-01-19T11:44:23.215Z,0.00
2023-01-19T11:47:21.122Z,0.05
2023-01-19T11:50:02.984Z,0.08
2023-01-19T11:52:59.515Z,0.07
2023-01-19T11:56:01.282Z,0.05
2023-01-19T11:58:35.665Z,0.05
2023-01-19T12:01:23.719Z,-0.08
2023-01-19T12:04:09.942Z,0.07
2023-01-19T12:07:09.252Z,0.07
2023-01-19T12:09:52.556Z,0.00
2023-01-19T12:12:31.299Z,0.02
2023-01-19T12:15:13.426Z,0.08
2023-01-19T12:18:00.272Z,0.05
2023-01-19T12:20:47.532Z,0.08
2023-01-19T12:26:52.673Z,0.00
2023-01-19T12:29:25.750Z,0.08
2023-01-19T12:32:19.599Z,0.04
2023-01-19T12:37:47.584Z,0.09
2023-01-19T12:40:29.148Z,0.02
2023-01-19T12:43:03.412Z,0.08
2023-01-19T12:45:40.147Z,0.09
2023-01-19T12:48:26.603Z,0.09
2023-01-19T12:50:58.809Z,0.09
2023-01-19T12:56:27.554Z,0.08
2023-01-19T12:59:00.291Z,0.05
2023-01-19T13:01:29.201Z,0.07
2023-01-19T13:04:04.689Z,0.10
2023-01-19T13:06:51.235Z,0.06
2023-01-19T13:09:31.017Z,0.01
2023-01-19T13:12:25.869Z,0.12
2023-01-19T13:18:36.660Z,0.04
2023-01-19T13:21:08.991Z,0.06
2023-01-19T13:23:52.747Z,0.02
2023-01-19T13:26:28.333Z,0.10
2023-01-19T13:29:27.533Z,0.06
2023-01-19T13:32:03.301Z,0.12
2023-01-19T13:34:41.558Z,0.13
2023-01-19T13:37:21.958Z,0.07
2023-01-19T13:39:55.961Z,0.12
2023-01-19T13:42:34.966Z,0.11
2023-01-19T13:45:13.884Z,0.11
2023-01-19T13:47:50.886Z,0.08
2023-01-19T13:50:24.183Z,0.08
2023-01-19T13:53:00.822Z,0.15
2023-01-19T13:55:35.447Z,0.10
2023-01-19T13:58:05.388Z,0.14
2023-01-19T14:00:39.305Z,0.10
2023-01-19T14:03:21.667Z,0.08
2023-01-19T14:05:54.673Z,0.15
2023-01-19T14:08:28.292Z,0.13
2023-01-19T14:11:00.385Z,0.13
2023-01-19T14:13:43.668Z,0.10
2023-01-19T14:16:21.309Z,0.14
2023-01-19T14:19:02.666Z,0.10
2023-01-19T14:21:44.795Z,0.07
2023-01-19T14:24:22.484Z,0.09
2023-01-19T14:26:57.140Z,0.13
2023-01-19T14:29:38.497Z,0.11
2023-01-19T14:32:19.948Z,0.13
2023-01-19T14:35:10.314Z,0.09
2023-01-19T14:37:56.111Z,0.17
2023-01-19T14:40:27.184Z,0.10
2023-01-19T14:43:03.488Z,0.13
2023-01-19T14:45:42.037Z,0.13
2023-01-19T14:48:18.388Z,0.19
2023-01-19T14:51:06.099Z,0.17
2023-01-19T14:53:40.479Z,0.20
2023-01-19T14:56:10.033Z,0.26
2023-01-19T14:58:39.943Z,0.20
2023-01-19T15:01:11.641Z,0.24
2023-01-19T15:03:45.793Z,0.19
2023-01-19T15:06:23.817Z,0.20
2023-01-19T15:08:57.173Z,0.17
2023-01-19T15:11:35.457Z,0.23
2023-01-19T15:14:07.958Z,0.21
2023-01-19T15:16:37.108Z,0.20
2023-01-19T15:19:08.076Z,0.22
2023-01-19T15:21:42.428Z,0.24
2023-01-19T15:24:18.309Z,0.19
2023-01-19T15:26:47.397Z,0.18
2023-01-19T15:29:28.948Z,0.25
2023-01-19T15:32:07.534Z,0.23
2023-01-19T15:34:44.050Z,0.23
2023-01-19T15:37:17.608Z,0.23
2023-01-19T15:39:52.251Z,0.20
2023-01-19T15:42:27.786Z,0.23
2023-01-19T15:44:58.736Z,0.24
2023-01-19T15:47:35.877Z,0.22
2023-01-19T15:50:07.851Z,0.19
2023-01-19T15:52:41.375Z,0.20
2023-01-19T15:55:18.950Z,0.23
2023-01-19T15:57:50.551Z,0.22
2023-01-19T16:00:22.379Z,0.16
2023-01-19T16:02:52.832Z,0.24
2023-01-19T16:05:30.584Z,0.19
2023-01-19T16:08:09.687Z,0.25
2023-01-19T16:10:44.278Z,0.15
2023-01-19T16:13:18.342Z,0.21
2023-01-19T16:15:50.334Z,0.24
2023-01-19T16:18:39.416Z,0.24
2023-01-19T16:21:11.094Z,0.08
2023-01-19T16:23:46.797Z,0.22
2023-01-19T16:26:29.361Z,0.27
2023-01-19T16:29:11.257Z,0.20
2023-01-19T16:31:45.133Z,0.30
2023-01-19T16:34:19.606Z,0.27
2023-01-19T16:36:48.265Z,0.19
2023-01-19T16:39:16.535Z,0.19
2023-01-19T16:41:47.407Z,0.27
2023-01-19T16:44:19.405Z,0.20
2023-01-19T16:46:50.758Z,0.26
2023-01-19T16:49:33.669Z,0.25
2023-01-19T16:52:02.731Z,0.30
2023-01-19T16:54:33.913Z,0.28
2023-01-19T16:57:06.965Z,0.23
2023-01-19T16:59:42.028Z,0.30
2023-01-19T17:02:22.950Z,0.26
2023-01-19T17:04:56.030Z,0.22
2023-01-19T17:07:33.136Z,0.27
2023-01-19T17:10:05.905Z,0.30
2023-01-19T17:12:40.503Z,0.28
2023-01-19T17:15:11.768Z,0.29
2023-01-19T17:17:41.402Z,0.31
2023-01-19T17:20:14.699Z,0.30
2023-01-19T17:22:44.263Z,0.26
2023-01-19T17:25:16.554Z,0.29
2023-01-19T17:27:46.069Z,0.27
2023-01-19T17:30:18.870Z,0.26
2023-01-19T17:32:51.164Z,0.30
2023-01-19T17:35:22.434Z,0.28
2023-01-19T17:37:58.919Z,0.31
2023-01-19T17:40:33.285Z,0.24
2023-01-19T17:43:12.582Z,0.27
2023-01-19T17:46:00.917Z,0.28
2023-01-19T17:48:33.011Z,0.30
2023-01-19T17:51:15.682Z,0.29
2023-01-19T17:53:44.608Z,0.27
2023-01-19T17:56:20.293Z,0.27
2023-01-19T17:58:57.038Z,0.31
2023-01-19T18:01:37.284Z,0.32
2023-01-19T18:04:08.135Z,0.29
2023-01-19T18:06:40.980Z,0.35
2023-01-19T18:09:13.092Z,0.34
2023-01-19T18:11:45.258Z,0.35
2023-01-19T18:14:17.043Z,0.35
2023-01-19T18:16:50.200Z,0.35
2023-01-19T18:19:22.527Z,0.34
2023-01-19T18:21:55.969Z,0.34
2023-01-19T18:24:25.994Z,0.35
2023-01-19T18:26:58.030Z,0.33
2023-01-19T18:29:47.936Z,0.36
2023-01-19T18:32:31.919Z,0.35
2023-01-19T18:35:03.086Z,0.36
2023-01-19T18:37:39.080Z,0.37
2023-01-19T18:40:10.834Z,0.42
2023-01-19T18:42:55.292Z,0.37
2023-01-19T18:45:25.825Z,0.36
2023-01-19T18:48:00.758Z,0.35
2023-01-19T18:50:30.650Z,0.39
2023-01-19T18:53:03.352Z,0.35
2023-01-19T18:55:39.009Z,0.35
2023-01-19T18:58:10.784Z,0.35
2023-01-19T19:00:41.090Z,0.42
2023-01-19T19:03:17.017Z,0.35
2023-01-19T19:05:47.542Z,0.42
2023-01-19T19:08:17.219Z,0.38
2023-01-19T19:10:47.457Z,0.38
2023-01-19T19:13:22.155Z,0.39
2023-01-19T19:15:53.133Z,0.39
2023-01-19T19:18:24.681Z,0.38
2023-01-19T19:20:54.272Z,0.35
2023-01-19T19:23:24.946Z,0.37
2023-01-19T19:25:53.640Z,0.35
2023-01-19T19:28:24.847Z,0.37
2023-01-19T19:31:12.522Z,0.36
2023-01-19T19:33:44.821Z,0.38
2023-01-19T19:36:16.339Z,0.41
2023-01-19T19:38:47.461Z,0.42
2023-01-19T19:41:27.281Z,0.42
2023-01-19T19:43:57.695Z,0.47
2023-01-19T19:46:28.056Z,0.41
2023-01-19T19:48:56.927Z,0.41
2023-01-19T19:51:27.429Z,0.42
2023-01-19T19:54:00.637Z,0.44
2023-01-19T19:56:32.715Z,0.48
2023-01-19T19:59:02.305Z,0.36
2023-01-19T20:01:33.867Z,0.46
2023-01-19T20:04:13.573Z,0.41
2023-01-19T20:06:46.869Z,0.41
2023-01-19T20:09:19.357Z,0.41
2023-01-19T20:11:49.616Z,0.43
2023-01-19T20:14:19.091Z,0.43
2023-01-19T20:16:47.260Z,0.42
2023-01-19T20:19:18.435Z,0.42
2023-01-19T20:21:46.975Z,0.44
2023-01-19T20:24:20.554Z,0.46
2023-01-19T20:26:52.959Z,0.42
2023-01-19T20:29:24.482Z,0.44
2023-01-19T20:31:56.215Z,0.42
2023-01-19T20:34:33.189Z,0.40
2023-01-19T20:37:04.357Z,0.45
2023-01-19T20:39:37.121Z,0.48
2023-01-19T20:42:06.696Z,0.48
2023-01-19T20:44:34.409Z,0.49
2023-01-19T20:47:02.332Z,0.44
2023-01-19T20:49:30.419Z,0.45
2023-01-19T20:51:58.734Z,0.49
2023-01-19T20:54:28.701Z,0.48
2023-01-19T20:56:57.879Z,0.47
2023-01-19T20:59:26.079Z,0.46
2023-01-19T21:01:53.931Z,0.49
2023-01-19T21:04:22.742Z,0.44
2023-01-19T21:06:50.618Z,0.47
2023-01-19T21:09:18.955Z,0.47
2023-01-19T21:11:47.165Z,0.48
2023-01-19T21:14:14.970Z,0.51
2023-01-19T21:16:43.669Z,0.50
2023-01-19T21:19:12.863Z,0.49
2023-01-19T21:21:44.008Z,0.46
2023-01-19T21:24:12.354Z,0.47
2023-01-19T21:26:41.981Z,0.47
2023-01-19T21:29:13.538Z,0.49
2023-01-19T21:31:42.046Z,0.46
2023-01-19T21:34:10.235Z,0.48
2023-01-19T21:36:38.126Z,0.49
2023-01-19T21:39:08.386Z,0.47
2023-01-19T21:41:40.570Z,0.52
2023-01-19T21:44:10.683Z,0.47
2023-01-19T21:46:39.144Z,0.47
2023-01-19T21:49:08.731Z,0.51
2023-01-19T21:51:37.336Z,0.52
2023-01-19T21:54:06.951Z,0.56
2023-01-19T21:56:43.534Z,0.48
2023-01-19T21:59:15.898Z,0.56
2023-01-19T22:01:45.919Z,0.54
2023-01-19T22:04:14.354Z,0.56
2023-01-19T22:06:42.267Z,0.51
2023-01-19T22:09:10.189Z,0.53
2023-01-19T22:11:38.453Z,0.53
2023-01-19T22:14:06.402Z,0.54
2023-01-19T22:16:34.215Z,0.52
2023-01-19T22:19:07.636Z,0.54
2023-01-19T22:21:38.650Z,0.55
2023-01-19T22:24:10.013Z,0.56
2023-01-19T22:26:37.981Z,0.49
2023-01-19T22:29:12.129Z,0.51
2023-01-19T22:31:40.493Z,0.51
2023-01-19T22:34:12.150Z,0.55
2023-01-19T22:36:40.134Z,0.50
2023-01-19T22:39:10.903Z,0.55
2023-01-19T22:41:47.070Z,0.56
2023-01-19T22:44:18.136Z,0.55
2023-01-19T22:46:45.889Z,0.55
2023-01-19T22:49:15.836Z,0.55
2023-01-19T22:51:46.501Z,0.57
2023-01-19T22:54:14.253Z,0.55
2023-01-19T22:56:42.375Z,0.60
2023-01-19T22:59:10.532Z,0.55
2023-01-19T23:01:41.409Z,0.57
2023-01-19T23:04:13.340Z,0.54
2023-01-19T23:06:41.581Z,0.56
2023-01-19T23:09:13.216Z,0.56
2023-01-19T23:11:44.332Z,0.59
2023-01-19T23:14:15.272Z,0.59
2023-01-19T23:16:43.425Z,0.55
2023-01-19T23:19:12.583Z,0.55
2023-01-19T23:21:42.202Z,0.55
2023-01-19T23:24:10.724Z,0.57
2023-01-19T23:26:39.095Z,0.58
2023-01-19T23:29:16.297Z,0.60
2023-01-19T23:31:47.391Z,0.52
2023-01-19T23:34:15.605Z,0.58
2023-01-19T23:36:44.679Z,0.59
2023-01-19T23:39:20.004Z,0.59
2023-01-19T23:41:51.250Z,0.59
2023-01-19T23:44:19.770Z,0.62
2023-01-19T23:46:50.810Z,0.58
2023-01-19T23:49:19.139Z,0.64
2023-01-19T23:51:46.996Z,0.66
2023-01-19T23:54:14.863Z,0.55
2023-01-19T23:56:43.104Z,0.60
2023-01-19T23:59:16.041Z,0.65
